Time;durP1;ratioP1;P1;durP2;ratioP2;P2;SDS_P1;SDS_P2;PMS_P1;PMS_P2;Temp;Humidity;BMP_temperature;BMP_pressure;BME280_temperature;BME280_humidity;BME280_pressure;Samples;Min_cycle;Max_cycle;Signal;HPM_P1;HPM_P2
2023/04/09 00:00:35;;;;;;;196.67;75.13;;;7.80;99.90;;;;;;5029568;28;20740;-54
2023/04/09 00:03:03;;;;;;;353.30;98.30;;;7.80;99.90;;;;;;5017010;28;20230;-54
2023/04/09 00:05:31;;;;;;;669.67;167.60;;;7.80;99.90;;;;;;5029102;28;20206;-54
2023/04/09 00:07:59;;;;;;;1749.30;313.57;;;7.80;99.90;;;;;;5029871;28;20298;-54
2023/04/09 00:10:27;;;;;;;1457.90;247.40;;;7.80;99.90;;;;;;5026149;28;20306;-54
2023/04/09 00:12:55;;;;;;;242.87;96.73;;;7.80;99.90;;;;;;5027416;28;20230;-53
2023/04/09 00:15:25;;;;;;;767.13;170.43;;;7.80;99.90;;;;;;5028564;28;20221;-52
2023/04/09 00:17:58;;;;;;;279.50;81.57;;;7.70;99.90;;;;;;5030102;28;20754;-52
2023/04/09 00:20:26;;;;;;;125.50;60.00;;;7.80;99.90;;;;;;5030374;28;20702;-54
2023/04/09 00:22:55;;;;;;;263.97;76.53;;;7.70;99.90;;;;;;5027245;28;20278;-54
2023/04/09 00:25:23;;;;;;;362.43;98.43;;;7.70;99.90;;;;;;5028307;28;20233;-53
2023/04/09 00:27:51;;;;;;;1999.90;726.77;;;7.80;99.90;;;;;;5043514;28;20243;-53
2023/04/09 00:30:19;;;;;;;1733.33;307.40;;;7.80;99.90;;;;;;5029228;28;20237;-52
2023/04/09 00:32:49;;;;;;;1999.90;684.00;;;7.80;99.90;;;;;;5029350;28;20348;-53
2023/04/09 00:35:17;;;;;;;432.83;97.23;;;7.80;99.90;;;;;;5023608;28;20245;-52
2023/04/09 00:37:45;;;;;;;724.00;156.10;;;7.80;99.90;;;;;;5024215;28;20744;-53
2023/04/09 00:40:14;;;;;;;80.63;44.37;;;7.80;99.90;;;;;;5028387;28;20216;-52
2023/04/09 00:42:42;;;;;;;58.10;44.27;;;7.80;99.90;;;;;;5028022;28;20280;-54
2023/04/09 00:45:10;;;;;;;117.43;40.70;;;7.80;99.90;;;;;;5016989;28;20293;-53
2023/04/09 00:47:38;;;;;;;70.63;44.07;;;7.70;99.90;;;;;;5028363;28;20239;-54
2023/04/09 00:50:09;;;;;;;45.40;32.70;;;7.70;99.90;;;;;;5028708;28;20216;-53
2023/04/09 00:52:38;;;;;;;205.10;62.00;;;7.70;99.90;;;;;;5028603;28;20226;-53
2023/04/09 00:55:07;;;;;;;491.57;121.97;;;7.70;99.90;;;;;;5028878;28;20293;-53
2023/04/09 00:57:35;;;;;;;961.53;176.40;;;7.70;99.90;;;;;;5028822;28;20289;-54
2023/04/09 01:00:06;;;;;;;613.17;182.70;;;7.70;99.90;;;;;;5028835;28;20245;-52
2023/04/09 01:02:34;;;;;;;212.67;91.27;;;7.70;99.90;;;;;;5028577;28;20760;-54
2023/04/09 01:05:02;;;;;;;239.23;95.77;;;7.60;99.90;;;;;;5028368;28;20622;-54
2023/04/09 01:07:42;;;;;;;168.60;73.93;;;7.70;99.90;;;;;;5028824;28;20948;-53
2023/04/09 01:10:21;;;;;;;1999.90;610.17;;;7.70;99.90;;;;;;5028597;28;20260;-53
2023/04/09 01:13:00;;;;;;;1982.73;422.43;;;7.70;99.90;;;;;;5028698;28;20226;-53
2023/04/09 01:15:35;;;;;;;1496.10;358.73;;;7.70;99.90;;;;;;5028096;28;20252;-54
2023/04/09 01:18:07;;;;;;;866.93;211.60;;;7.70;99.90;;;;;;5028798;28;20205;-53
2023/04/09 01:20:39;;;;;;;1999.90;843.73;;;7.60;99.90;;;;;;5028104;28;20634;-52
2023/04/09 01:23:29;;;;;;;1384.37;246.50;;;7.60;99.90;;;;;;5027637;28;20226;-54
2023/04/09 01:26:03;;;;;;;985.60;164.87;;;7.60;99.90;;;;;;5023122;28;20207;-54
2023/04/09 01:28:36;;;;;;;1750.40;523.97;;;7.50;99.90;;;;;;5028645;28;20227;-53
2023/04/09 01:31:12;;;;;;;1790.80;334.13;;;7.60;99.90;;;;;;5028401;28;20208;-52
2023/04/09 01:33:41;;;;;;;1889.17;275.87;;;7.50;99.90;;;;;;5027967;28;20279;-54
2023/04/09 01:36:10;;;;;;;265.63;78.50;;;7.50;99.90;;;;;;5028262;28;20237;-53
2023/04/09 01:38:42;;;;;;;221.50;70.93;;;7.50;99.90;;;;;;5026862;28;20610;-54
2023/04/09 01:41:14;;;;;;;448.03;102.93;;;7.50;99.90;;;;;;5028674;28;20297;-53
2023/04/09 01:43:45;;;;;;;1164.37;227.87;;;7.50;99.90;;;;;;5037652;28;20295;-53
2023/04/09 01:46:14;;;;;;;68.47;41.87;;;7.50;99.90;;;;;;5027313;28;20293;-54
2023/04/09 01:48:43;;;;;;;56.73;33.90;;;7.50;99.90;;;;;;5028070;28;20202;-53
2023/04/09 01:51:12;;;;;;;1999.90;573.57;;;7.50;99.90;;;;;;5027865;28;20245;-53
2023/04/09 01:53:41;;;;;;;71.50;51.00;;;7.60;99.90;;;;;;5028325;28;20638;-54
2023/04/09 01:56:10;;;;;;;82.57;54.30;;;7.50;99.90;;;;;;5018824;28;20238;-52
2023/04/09 01:58:38;;;;;;;214.13;82.73;;;7.50;99.90;;;;;;5028258;28;20210;-54
2023/04/09 02:01:11;;;;;;;75.37;46.40;;;7.50;99.90;;;;;;5028222;28;20260;-53
2023/04/09 02:03:44;;;;;;;116.90;58.77;;;7.60;99.90;;;;;;5027806;28;20230;-53
2023/04/09 02:06:16;;;;;;;276.20;88.33;;;7.60;99.90;;;;;;5028170;28;20210;-53
2023/04/09 02:08:46;;;;;;;217.43;71.07;;;7.60;99.90;;;;;;5027907;28;20327;-53
2023/04/09 02:11:15;;;;;;;96.20;51.60;;;7.60;99.90;;;;;;5027770;28;20241;-53
2023/04/09 02:13:45;;;;;;;136.00;64.70;;;7.50;99.90;;;;;;5027410;28;20305;-55
2023/04/09 02:16:15;;;;;;;1999.90;525.53;;;7.60;99.90;;;;;;5027716;28;20652;-53
2023/04/09 02:18:44;;;;;;;1099.17;204.00;;;7.50;99.90;;;;;;5028111;28;20254;-53
2023/04/09 02:21:12;;;;;;;1690.73;237.83;;;7.50;99.90;;;;;;5027989;28;20211;-54
2023/04/09 02:23:40;;;;;;;1160.40;216.63;;;7.50;99.90;;;;;;5027852;28;20226;-53
2023/04/09 02:26:08;;;;;;;1999.90;406.60;;;7.50;99.90;;;;;;5027370;28;20240;-53
2023/04/09 02:28:36;;;;;;;72.23;46.30;;;7.50;99.90;;;;;;5027806;28;20770;-54
2023/04/09 02:31:05;;;;;;;1761.17;334.97;;;7.50;99.90;;;;;;5027515;28;20337;-53
2023/04/09 02:33:34;;;;;;;500.33;106.87;;;7.50;99.90;;;;;;5029126;28;20604;-53
2023/04/09 02:36:02;;;;;;;68.17;47.57;;;7.40;99.90;;;;;;5028641;28;20233;-54
2023/04/09 02:38:30;;;;;;;606.27;95.90;;;7.40;99.90;;;;;;5031445;28;20206;-53
2023/04/09 02:40:58;;;;;;;1999.90;357.60;;;7.40;99.90;;;;;;5031575;28;20214;-54
2023/04/09 02:43:26;;;;;;;1269.17;209.47;;;7.50;99.90;;;;;;5030913;28;20238;-53
2023/04/09 02:45:54;;;;;;;105.90;51.37;;;7.50;99.90;;;;;;5030718;28;20210;-54
2023/04/09 02:48:22;;;;;;;630.60;156.70;;;7.40;99.90;;;;;;5030512;28;20217;-53
2023/04/09 02:50:52;;;;;;;174.57;65.87;;;7.40;99.90;;;;;;5031187;28;20237;-53
2023/04/09 02:53:20;;;;;;;507.90;123.53;;;7.30;99.90;;;;;;5024679;28;20314;-54
2023/04/09 02:55:48;;;;;;;178.57;77.57;;;7.30;99.90;;;;;;5031051;28;20754;-54
2023/04/09 02:58:16;;;;;;;74.67;43.50;;;7.30;99.90;;;;;;5017652;28;20211;-53
2023/04/09 03:00:44;;;;;;;1693.70;321.43;;;7.30;99.90;;;;;;5030835;28;20238;-53
2023/04/09 03:03:12;;;;;;;193.87;82.27;;;7.30;99.90;;;;;;5030814;28;20666;-52
2023/04/09 03:05:40;;;;;;;691.13;178.63;;;7.20;99.90;;;;;;5029304;28;20207;-54
2023/04/09 03:08:10;;;;;;;65.17;44.80;;;7.20;99.90;;;;;;5030925;28;20696;-54
2023/04/09 03:10:38;;;;;;;70.90;47.70;;;7.20;99.90;;;;;;5030340;28;20212;-53
2023/04/09 03:13:06;;;;;;;79.90;52.40;;;7.20;99.90;;;;;;5030977;28;20305;-54
2023/04/09 03:15:34;;;;;;;82.17;51.50;;;7.20;99.90;;;;;;5030900;28;20306;-53
2023/04/09 03:18:02;;;;;;;194.83;70.83;;;7.20;99.90;;;;;;5030398;28;20210;-54
2023/04/09 03:20:30;;;;;;;252.57;71.87;;;7.10;99.90;;;;;;5030901;28;20301;-53
2023/04/09 03:22:58;;;;;;;242.20;89.87;;;7.00;99.90;;;;;;5030044;28;20318;-54
2023/04/09 03:25:27;;;;;;;97.33;56.13;;;7.00;99.90;;;;;;5030642;28;20233;-54
2023/04/09 03:27:55;;;;;;;113.70;61.00;;;7.00;99.90;;;;;;5021366;28;20289;-54
2023/04/09 03:30:23;;;;;;;93.53;50.50;;;7.00;99.90;;;;;;5030190;28;20211;-53
2023/04/09 03:32:51;;;;;;;341.33;101.03;;;7.00;99.90;;;;;;5019921;28;20313;-53
2023/04/09 03:35:19;;;;;;;154.97;60.07;;;7.00;99.90;;;;;;5020494;28;20203;-52
2023/04/09 03:37:47;;;;;;;72.87;44.93;;;7.10;99.90;;;;;;5030617;28;20206;-53
2023/04/09 03:40:16;;;;;;;1999.90;484.03;;;7.10;99.90;;;;;;5030310;28;20265;-54
2023/04/09 03:42:45;;;;;;;690.80;124.80;;;7.10;99.90;;;;;;5028965;28;20258;-53
2023/04/09 03:45:13;;;;;;;76.00;48.97;;;7.10;99.90;;;;;;5029175;28;20664;-54
2023/04/09 03:47:41;;;;;;;273.03;91.17;;;7.10;99.90;;;;;;5030119;28;20237;-53
2023/04/09 03:50:10;;;;;;;468.77;128.30;;;7.10;99.90;;;;;;5030174;28;20614;-53
2023/04/09 03:52:38;;;;;;;91.90;58.77;;;7.10;99.90;;;;;;5029747;28;20226;-54
2023/04/09 03:55:07;;;;;;;191.57;77.47;;;7.10;99.90;;;;;;5029919;28;20285;-53
2023/04/09 03:57:35;;;;;;;67.50;46.83;;;7.20;99.90;;;;;;5028608;28;20297;-54
2023/04/09 04:00:06;;;;;;;67.10;45.87;;;7.10;99.90;;;;;;5025126;28;20288;-53
2023/04/09 04:02:34;;;;;;;69.70;41.73;;;7.10;99.90;;;;;;5026098;28;20312;-53
2023/04/09 04:05:02;;;;;;;127.03;59.00;;;7.10;99.90;;;;;;5029469;28;20666;-53
2023/04/09 04:07:30;;;;;;;79.83;50.07;;;7.20;99.90;;;;;;5030004;28;20245;-52
2023/04/09 04:09:58;;;;;;;101.23;51.17;;;7.20;99.90;;;;;;5029501;28;20291;-53
2023/04/09 04:12:26;;;;;;;126.13;57.20;;;7.20;99.90;;;;;;5028785;28;20287;-53
2023/04/09 04:14:54;;;;;;;136.50;74.47;;;7.20;99.90;;;;;;5029761;28;20301;-52
2023/04/09 04:17:23;;;;;;;74.57;51.80;;;7.20;99.90;;;;;;5029906;28;20241;-51
2023/04/09 04:19:51;;;;;;;94.50;57.97;;;7.20;99.90;;;;;;5029873;28;20206;-53
2023/04/09 04:22:19;;;;;;;93.50;47.77;;;7.20;99.90;;;;;;5029708;28;20285;-54
2023/04/09 04:24:47;;;;;;;243.20;91.57;;;7.20;99.90;;;;;;5029301;28;20308;-54
2023/04/09 04:27:15;;;;;;;570.03;138.90;;;7.20;99.90;;;;;;5029664;28;20308;-54
2023/04/09 04:29:43;;;;;;;1993.67;382.40;;;7.20;99.90;;;;;;5028574;28;20748;-54
2023/04/09 04:32:11;;;;;;;948.93;201.87;;;7.20;99.90;;;;;;5029563;28;20280;-54
2023/04/09 04:34:41;;;;;;;59.10;40.43;;;7.20;99.90;;;;;;5024825;28;20285;-54
2023/04/09 04:37:09;;;;;;;185.53;86.57;;;7.20;99.90;;;;;;5026543;28;20301;-53
2023/04/09 04:39:36;;;;;;;1357.07;216.10;;;7.20;99.90;;;;;;5025963;28;20230;-54
2023/04/09 04:42:04;;;;;;;1143.73;219.87;;;7.20;99.90;;;;;;5029269;28;20313;-53
2023/04/09 04:44:32;;;;;;;216.50;65.40;;;7.20;99.90;;;;;;5029224;28;20313;-54
2023/04/09 04:47:00;;;;;;;413.57;111.77;;;7.20;99.90;;;;;;5029410;28;20218;-53
2023/04/09 04:49:29;;;;;;;1685.93;232.63;;;7.20;99.90;;;;;;5029544;28;20272;-53
2023/04/09 04:51:58;;;;;;;1155.70;188.40;;;7.20;99.90;;;;;;5028583;28;20242;-53
2023/04/09 04:54:26;;;;;;;79.43;52.57;;;7.30;99.90;;;;;;5022388;28;20298;-53
2023/04/09 04:56:55;;;;;;;112.40;58.40;;;7.20;99.90;;;;;;5027705;28;20297;-54
2023/04/09 04:59:23;;;;;;;117.23;48.57;;;7.30;99.90;;;;;;5028671;28;20210;-53
2023/04/09 05:01:50;;;;;;;727.57;149.37;;;7.30;99.90;;;;;;5028998;28;20245;-53
2023/04/09 05:04:19;;;;;;;68.87;48.03;;;7.30;99.90;;;;;;5028321;28;20736;-53
2023/04/09 05:06:47;;;;;;;129.63;59.73;;;7.30;99.90;;;;;;5028660;28;20297;-53
2023/04/09 05:09:16;;;;;;;240.67;81.00;;;7.30;99.90;;;;;;5028803;28;20293;-54
2023/04/09 05:11:44;;;;;;;162.30;82.30;;;7.30;99.90;;;;;;5028253;28;20739;-53
2023/04/09 05:14:12;;;;;;;63.17;46.53;;;7.30;99.90;;;;;;5028474;28;20983;-53
2023/04/09 05:16:40;;;;;;;451.20;120.03;;;7.40;99.90;;;;;;5028633;28;20300;-53
2023/04/09 05:19:08;;;;;;;194.00;74.53;;;7.40;99.90;;;;;;5027575;28;20679;-53
2023/04/09 05:21:36;;;;;;;86.87;49.57;;;7.40;99.90;;;;;;5028616;28;20743;-52
2023/04/09 05:24:05;;;;;;;240.73;79.00;;;7.40;99.90;;;;;;5023868;28;20675;-52
2023/04/09 05:26:35;;;;;;;146.27;76.53;;;7.40;99.90;;;;;;5028397;28;20300;-53
2023/04/09 05:29:03;;;;;;;223.20;77.60;;;7.40;99.90;;;;;;5028434;28;20206;-53
2023/04/09 05:31:31;;;;;;;1275.00;239.07;;;7.50;99.90;;;;;;5028386;28;20210;-53
2023/04/09 05:33:59;;;;;;;1137.13;206.83;;;7.60;99.90;;;;;;5028615;28;20750;-53
2023/04/09 05:36:27;;;;;;;515.80;136.13;;;7.60;99.90;;;;;;5028215;28;20941;-53
2023/04/09 05:38:55;;;;;;;1119.83;232.30;;;7.50;99.90;;;;;;5027905;28;20207;-53
2023/04/09 05:41:23;;;;;;;386.87;112.90;;;7.50;99.90;;;;;;5021318;28;20209;-53
2023/04/09 05:43:52;;;;;;;1043.53;233.40;;;7.50;99.90;;;;;;5026790;28;20965;-53
2023/04/09 05:46:21;;;;;;;1999.90;682.03;;;7.60;99.90;;;;;;5028622;28;20297;-52
2023/04/09 05:48:49;;;;;;;1999.90;867.03;;;7.70;99.90;;;;;;5028294;28;20202;-53
2023/04/09 05:51:17;;;;;;;1999.90;692.23;;;7.70;99.90;;;;;;5028240;28;20238;-53
2023/04/09 05:53:45;;;;;;;1999.90;469.00;;;7.60;99.90;;;;;;5028252;28;20608;-54
2023/04/09 05:56:15;;;;;;;1999.90;433.23;;;7.60;99.90;;;;;;5026703;28;20293;-53
2023/04/09 05:58:43;;;;;;;1999.90;436.20;;;7.70;99.90;;;;;;5019500;28;20297;-53
2023/04/09 06:01:12;;;;;;;1999.90;624.43;;;7.70;99.90;;;;;;5027887;28;20242;-54
2023/04/09 06:03:40;;;;;;;1999.90;690.00;;;7.70;99.90;;;;;;5028150;28;20895;-53
2023/04/09 06:06:09;;;;;;;770.40;177.40;;;7.70;99.90;;;;;;5027502;28;20234;-53
2023/04/09 06:08:37;;;;;;;1228.27;237.47;;;7.60;99.90;;;;;;5029510;28;20336;-54
2023/04/09 06:11:09;;;;;;;1063.43;200.40;;;7.70;99.90;;;;;;5030911;28;20237;-54
2023/04/09 06:13:37;;;;;;;1999.90;884.93;;;7.70;99.90;;;;;;5032078;28;20318;-54
2023/04/09 06:16:06;;;;;;;1777.83;273.07;;;7.90;99.90;;;;;;5031998;28;20234;-53
2023/04/09 06:18:35;;;;;;;340.80;118.40;;;7.80;99.90;;;;;;5031717;28;20214;-53
2023/04/09 06:21:04;;;;;;;1999.90;701.77;;;7.80;99.90;;;;;;5031993;28;20618;-53
2023/04/09 06:23:32;;;;;;;420.53;104.90;;;7.90;99.90;;;;;;5031395;28;20269;-54
2023/04/09 06:26:00;;;;;;;183.87;82.73;;;7.90;99.90;;;;;;5025669;28;20317;-54
2023/04/09 06:28:30;;;;;;;1999.90;554.90;;;7.90;99.90;;;;;;5029722;28;20308;-53
2023/04/09 06:30:58;;;;;;;1999.90;685.43;;;8.00;99.90;;;;;;5032011;28;20210;-53
2023/04/09 06:33:26;;;;;;;1999.90;743.73;;;8.00;99.90;;;;;;5031486;28;20226;-53
2023/04/09 06:35:56;;;;;;;1999.90;433.37;;;8.10;99.90;;;;;;5022220;28;20211;-53
2023/04/09 06:38:24;;;;;;;1999.90;619.20;;;8.00;99.90;;;;;;5031608;28;20203;-53
2023/04/09 06:40:52;;;;;;;1567.53;322.17;;;8.10;99.90;;;;;;5031122;28;20336;-54
2023/04/09 06:43:20;;;;;;;1999.90;542.87;;;8.10;99.90;;;;;;5020685;28;20254;-54
2023/04/09 06:45:48;;;;;;;1999.90;673.70;;;8.10;99.90;;;;;;5031188;28;20222;-54
2023/04/09 06:48:16;;;;;;;1999.90;456.43;;;8.20;99.90;;;;;;5023208;28;20293;-54
2023/04/09 06:50:44;;;;;;;1999.90;774.67;;;8.30;99.90;;;;;;5024612;28;20289;-53
2023/04/09 06:53:15;;;;;;;1999.90;583.07;;;8.30;99.90;;;;;;5019357;28;20332;-53
2023/04/09 06:55:43;;;;;;;1999.90;692.27;;;8.40;99.90;;;;;;5031149;28;20229;-54
2023/04/09 06:58:11;;;;;;;1130.47;200.37;;;8.30;99.90;;;;;;5030708;28;20242;-52
2023/04/09 07:00:39;;;;;;;1999.90;668.37;;;8.40;99.90;;;;;;5028032;28;20214;-53
2023/04/09 07:03:07;;;;;;;1999.90;776.67;;;8.60;99.90;;;;;;5028775;28;20269;-54
2023/04/09 07:05:36;;;;;;;1999.90;756.83;;;8.50;99.90;;;;;;5022540;28;20225;-53
2023/04/09 07:08:04;;;;;;;844.07;169.97;;;8.50;99.90;;;;;;5026436;28;20257;-54
2023/04/09 07:10:34;;;;;;;1999.90;593.27;;;8.50;99.90;;;;;;5030271;28;20214;-54
2023/04/09 07:13:02;;;;;;;1999.90;712.83;;;8.60;99.90;;;;;;5030847;28;20323;-53
2023/04/09 07:15:30;;;;;;;1999.90;852.60;;;8.50;99.90;;;;;;5029822;28;20687;-54
2023/04/09 07:17:58;;;;;;;1999.90;620.00;;;8.70;99.90;;;;;;5026198;28;20318;-54
2023/04/09 07:20:26;;;;;;;1999.90;533.30;;;8.70;99.90;;;;;;5022273;28;20689;-54
2023/04/09 07:22:54;;;;;;;1999.90;516.57;;;8.80;99.90;;;;;;5024130;28;20320;-54
2023/04/09 07:25:22;;;;;;;1999.90;682.77;;;8.80;99.90;;;;;;5025145;28;20783;-54
2023/04/09 07:27:52;;;;;;;1615.37;263.00;;;8.80;99.90;;;;;;5023465;28;20206;-53
2023/04/09 07:30:20;;;;;;;1999.90;579.37;;;9.00;99.90;;;;;;5030141;28;20249;-53
2023/04/09 07:32:48;;;;;;;1999.90;476.83;;;9.00;99.90;;;;;;5024915;28;20236;-54
2023/04/09 07:35:17;;;;;;;215.33;102.83;;;9.10;99.90;;;;;;5028340;28;20296;-53
2023/04/09 07:37:45;;;;;;;1999.90;917.97;;;9.20;99.90;;;;;;5030220;28;20758;-54
2023/04/09 07:40:13;;;;;;;1738.07;348.47;;;9.40;99.90;;;;;;5030146;28;20209;-54
2023/04/09 07:42:41;;;;;;;1149.07;315.40;;;9.40;99.90;;;;;;5029869;28;20708;-53
2023/04/09 07:45:10;;;;;;;1999.90;430.03;;;9.50;99.90;;;;;;5026689;28;20234;-52
2023/04/09 07:47:39;;;;;;;1999.90;787.77;;;9.60;99.90;;;;;;5030109;28;20289;-53
2023/04/09 07:50:09;;;;;;;1999.90;388.40;;;9.60;99.90;;;;;;5029905;28;20297;-54
2023/04/09 07:52:36;;;;;;;1570.53;347.80;;;9.80;99.90;;;;;;5029764;28;20744;-54
2023/04/09 07:55:05;;;;;;;1107.27;321.97;;;9.80;99.90;;;;;;5029863;28;20831;-52
2023/04/09 07:57:34;;;;;;;940.67;252.40;;;10.00;99.90;;;;;;5027904;28;20216;-54
2023/04/09 08:00:02;;;;;;;1999.90;550.67;;;10.10;99.90;;;;;;5030024;28;20207;-55
2023/04/09 08:02:32;;;;;;;1999.90;520.17;;;10.20;99.90;;;;;;5029488;28;20230;-54
2023/04/09 08:05:00;;;;;;;1606.37;453.87;;;10.40;99.90;;;;;;5030039;28;20202;-55
2023/04/09 08:07:28;;;;;;;1837.90;280.57;;;10.60;99.90;;;;;;5026425;28;20225;-53
2023/04/09 08:09:56;;;;;;;1122.97;351.27;;;10.70;99.90;;;;;;5029660;28;20816;-54
2023/04/09 08:12:24;;;;;;;1653.67;321.50;;;10.70;99.90;;;;;;5027851;28;20762;-54
2023/04/09 08:14:52;;;;;;;1999.90;411.60;;;10.80;99.90;;;;;;5023419;28;20210;-54
2023/04/09 08:17:20;;;;;;;1999.90;637.97;;;10.90;99.90;;;;;;5029352;28;20293;-54
2023/04/09 08:19:50;;;;;;;1999.90;841.80;;;10.90;99.90;;;;;;5028684;28;20692;-53
2023/04/09 08:22:18;;;;;;;1833.67;407.63;;;10.90;99.90;;;;;;5029374;28;20947;-53
2023/04/09 08:24:51;;;;;;;1999.90;604.87;;;11.00;99.90;;;;;;5028613;28;20233;-53
2023/04/09 08:27:20;;;;;;;1750.53;330.50;;;11.10;99.90;;;;;;5028830;28;20273;-54
2023/04/09 08:29:48;;;;;;;1999.90;650.07;;;11.10;99.90;;;;;;5029182;28;20241;-52
2023/04/09 08:32:16;;;;;;;1999.90;645.80;;;11.10;99.90;;;;;;5028408;28;20230;-54
2023/04/09 08:34:44;;;;;;;1999.90;498.20;;;11.10;99.90;;;;;;5029214;28;20210;-54
2023/04/09 08:37:13;;;;;;;1999.90;649.87;;;11.20;99.90;;;;;;5028798;28;20591;-54
2023/04/09 08:39:41;;;;;;;1999.90;775.00;;;11.30;99.90;;;;;;5028869;28;20229;-54
2023/04/09 08:42:11;;;;;;;1999.90;794.93;;;11.40;99.90;;;;;;5028112;28;20312;-53
2023/04/09 08:44:39;;;;;;;1999.90;494.10;;;11.50;99.90;;;;;;5022905;28;20235;-55
2023/04/09 08:47:10;;;;;;;1999.90;539.43;;;11.60;99.90;;;;;;5026751;28;20281;-54
2023/04/09 08:49:40;;;;;;;1999.90;819.90;;;11.80;99.90;;;;;;5028662;28;20665;-54
2023/04/09 08:52:08;;;;;;;1999.90;884.70;;;12.00;99.90;;;;;;5028902;28;20825;-53
2023/04/09 08:54:37;;;;;;;1999.90;888.77;;;12.10;99.90;;;;;;5014186;28;20293;-53
2023/04/09 08:57:06;;;;;;;1999.90;985.17;;;12.10;99.90;;;;;;5028965;28;20230;-54
2023/04/09 08:59:35;;;;;;;1999.90;999.90;;;12.10;99.90;;;;;;5027975;28;20289;-54
2023/04/09 09:02:08;;;;;;;1999.90;678.43;;;12.20;99.90;;;;;;5020541;28;20229;-54
2023/04/09 09:04:47;;;;;;;1999.90;916.13;;;12.30;99.90;;;;;;5028753;28;20268;-54
2023/04/09 09:07:15;;;;;;;1999.90;974.87;;;12.30;99.90;;;;;;5028694;28;20257;-54
2023/04/09 09:09:56;;;;;;;1999.90;977.80;;;12.40;99.90;;;;;;5029044;28;20206;-53
2023/04/09 09:12:36;;;;;;;1999.90;947.70;;;12.20;99.90;;;;;;5027903;28;20321;-54
2023/04/09 09:15:07;;;;;;;1999.90;999.87;;;12.20;99.90;;;;;;5028532;28;20682;-54
2023/04/09 09:17:54;;;;;;;1999.90;999.90;;;12.10;99.90;;;;;;5028769;28;20288;-53
2023/04/09 09:20:23;;;;;;;1999.90;966.17;;;12.30;99.90;;;;;;5028572;28;20214;-55
2023/04/09 09:22:53;;;;;;;1999.90;950.87;;;12.30;99.90;;;;;;5023903;28;20349;-54
2023/04/09 09:25:24;;;;;;;1999.90;886.33;;;12.50;99.90;;;;;;5027839;28;20217;-54
2023/04/09 09:27:54;;;;;;;1999.90;999.90;;;12.70;99.90;;;;;;5025564;28;20220;-54
2023/04/09 09:30:24;;;;;;;1999.90;939.70;;;12.90;99.90;;;;;;5028002;28;20217;-54
2023/04/09 09:32:53;;;;;;;1999.90;996.07;;;12.90;99.90;;;;;;5028576;28;20265;-54
2023/04/09 09:35:22;;;;;;;1999.90;999.90;;;13.00;99.90;;;;;;5026779;28;20284;-55
2023/04/09 09:38:03;;;;;;;1999.90;999.90;;;13.20;99.90;;;;;;5028076;28;20684;-53
2023/04/09 09:40:32;;;;;;;1999.90;999.90;;;13.30;99.90;;;;;;5028222;28;20248;-55
2023/04/09 09:43:00;;;;;;;1999.90;999.90;;;13.50;99.90;;;;;;5027267;28;20676;-55
2023/04/09 09:45:30;;;;;;;1999.90;999.90;;;13.60;99.90;;;;;;5032448;28;20213;-55
2023/04/09 09:47:58;;;;;;;1999.90;999.90;;;13.60;99.90;;;;;;5032100;28;20226;-54
2023/04/09 09:50:29;;;;;;;1999.90;999.90;;;13.50;99.90;;;;;;5032396;28;20202;-55
2023/04/09 09:53:03;;;;;;;1999.90;999.90;;;13.50;99.90;;;;;;5032574;28;20275;-54
2023/04/09 09:55:34;;;;;;;1999.90;999.90;;;13.50;99.90;;;;;;5032413;28;20381;-56
2023/04/09 09:58:07;;;;;;;1999.90;999.90;;;13.50;99.90;;;;;;5032226;28;20229;-55
2023/04/09 10:00:37;;;;;;;1999.90;999.90;;;13.50;99.90;;;;;;5028392;28;20700;-54
2023/04/09 10:03:14;;;;;;;1999.90;999.90;;;13.50;99.90;;;;;;5025593;28;21028;-54
2023/04/09 10:05:43;;;;;;;1999.90;999.90;;;13.70;99.90;;;;;;5031709;28;20208;-54
2023/04/09 10:08:12;;;;;;;1999.90;999.90;;;13.60;99.90;;;;;;5031947;28;20655;-54
2023/04/09 10:10:42;;;;;;;1999.90;999.90;;;13.40;99.90;;;;;;5030376;28;20336;-55
2023/04/09 10:13:16;;;;;;;1999.90;999.90;;;13.30;99.90;;;;;;5031089;28;20709;-55
2023/04/09 10:15:44;;;;;;;1999.90;999.90;;;13.20;99.90;;;;;;5031968;28;20690;-56
2023/04/09 10:18:13;;;;;;;1999.90;999.90;;;13.30;99.90;;;;;;5031203;28;20199;-54
2023/04/09 10:20:48;;;;;;;1999.90;999.90;;;13.40;99.90;;;;;;5019797;28;20687;-55
2023/04/09 10:23:24;;;;;;;1999.90;999.90;;;13.40;99.90;;;;;;5031143;28;20291;-54
2023/04/09 10:25:53;;;;;;;1999.90;999.90;;;13.20;99.90;;;;;;5027756;28;20210;-54
2023/04/09 10:28:23;;;;;;;1999.90;999.90;;;13.10;99.90;;;;;;5030580;28;20265;-54
2023/04/09 10:30:54;;;;;;;1999.90;999.90;;;13.10;99.90;;;;;;5031816;28;20260;-54
2023/04/09 10:33:25;;;;;;;1999.90;999.90;;;12.90;99.90;;;;;;5030689;28;20284;-54
2023/04/09 10:35:54;;;;;;;1999.90;999.90;;;12.90;99.90;;;;;;5030557;28;20207;-54
2023/04/09 10:38:36;;;;;;;1999.90;999.90;;;12.80;99.90;;;;;;5031248;28;20216;-55
2023/04/09 10:41:15;;;;;;;1999.90;999.90;;;12.90;99.90;;;;;;5030912;28;20250;-54
2023/04/09 10:43:43;;;;;;;1999.90;999.90;;;13.00;99.90;;;;;;5030374;28;20312;-55
2023/04/09 10:46:28;;;;;;;1999.90;999.90;;;13.00;99.90;;;;;;5031186;28;20293;-54
2023/04/09 10:49:15;;;;;;;1999.90;999.90;;;13.00;99.90;;;;;;5030637;28;20636;-54
2023/04/09 10:51:49;;;;;;;1999.90;999.90;;;13.10;99.90;;;;;;5030911;28;20233;-54
2023/04/09 10:54:37;;;;;;;1999.90;999.90;;;13.10;99.90;;;;;;5027276;28;20293;-55
2023/04/09 10:57:15;;;;;;;1999.90;999.90;;;13.30;99.90;;;;;;5016846;28;20238;-55
2023/04/09 10:59:44;;;;;;;1999.90;999.90;;;13.40;99.90;;;;;;5031008;28;20289;-54
2023/04/09 11:02:45;;;;;;;1999.90;999.90;;;13.50;99.90;;;;;;5025188;28;20308;-55
2023/04/09 11:05:21;;;;;;;1999.90;999.90;;;13.50;99.90;;;;;;5013199;28;20214;-55
2023/04/09 11:07:56;;;;;;;1999.90;999.90;;;13.20;99.90;;;;;;5030589;28;20312;-55
2023/04/09 11:10:25;;;;;;;1999.90;999.90;;;13.40;99.90;;;;;;5030691;28;20225;-53
2023/04/09 11:12:54;;;;;;;1999.90;999.90;;;13.30;99.90;;;;;;5029941;28;20257;-53
2023/04/09 11:15:22;;;;;;;1999.90;999.90;;;13.50;99.90;;;;;;5030521;28;20268;-54
2023/04/09 11:17:51;;;;;;;1999.90;999.90;;;13.40;99.90;;;;;;5030878;28;20600;-55
2023/04/09 11:20:21;;;;;;;1999.90;999.90;;;13.50;99.90;;;;;;5030061;28;20230;-55
2023/04/09 11:22:51;;;;;;;1999.90;999.90;;;13.50;99.90;;;;;;5025305;28;20689;-54
2023/04/09 11:25:20;;;;;;;1999.90;999.90;;;13.40;99.90;;;;;;5030162;28;20210;-55
2023/04/09 11:27:49;;;;;;;1999.90;999.90;;;13.40;99.90;;;;;;5030212;28;20222;-56
2023/04/09 11:30:19;;;;;;;1999.90;999.90;;;13.40;99.90;;;;;;5028123;28;20245;-53
2023/04/09 11:32:48;;;;;;;1999.90;999.90;;;13.40;99.90;;;;;;5022374;28;20261;-54
2023/04/09 11:35:17;;;;;;;1999.90;999.90;;;13.30;99.90;;;;;;5030558;28;20211;-56
2023/04/09 11:37:46;;;;;;;1999.90;999.90;;;13.30;99.90;;;;;;5030241;28;20230;-54
2023/04/09 11:40:18;;;;;;;1999.90;999.90;;;13.20;99.90;;;;;;5030201;28;20264;-55
2023/04/09 11:42:50;;;;;;;1999.90;999.90;;;13.10;99.90;;;;;;5028961;28;20313;-54
2023/04/09 11:45:20;;;;;;;1999.90;999.90;;;13.20;99.90;;;;;;5030529;28;20297;-53
2023/04/09 11:47:48;;;;;;;1999.90;999.90;;;13.10;99.90;;;;;;5029412;28;20320;-54
2023/04/09 11:50:17;;;;;;;1999.90;999.90;;;13.20;99.90;;;;;;5030379;28;20221;-55
2023/04/09 11:52:45;;;;;;;1999.90;999.90;;;13.20;99.90;;;;;;5027627;28;20254;-55
2023/04/09 11:55:24;;;;;;;1999.90;999.90;;;13.10;99.90;;;;;;5030411;28;20285;-55
2023/04/09 11:57:53;;;;;;;1999.90;999.90;;;13.40;99.90;;;;;;5029237;28;20230;-55
2023/04/09 12:00:23;;;;;;;1999.90;999.90;;;13.40;99.90;;;;;;5029921;28;20289;-55
2023/04/09 12:02:59;;;;;;;1999.90;999.90;;;13.70;99.90;;;;;;5029411;28;20341;-55
2023/04/09 12:05:30;;;;;;;1999.90;999.90;;;13.70;99.90;;;;;;5028880;28;20704;-55
2023/04/09 12:08:00;;;;;;;1999.90;999.90;;;13.90;99.90;;;;;;5032460;28;20218;-54
2023/04/09 12:10:29;;;;;;;1999.90;999.90;;;14.00;99.90;;;;;;5028134;28;20297;-55
2023/04/09 12:13:02;;;;;;;1999.90;999.90;;;14.00;99.90;;;;;;5019786;28;20998;-54
2023/04/09 12:15:34;;;;;;;1999.90;999.90;;;14.00;99.90;;;;;;5034894;28;20682;-53
2023/04/09 12:18:03;;;;;;;1999.90;999.90;;;14.00;99.90;;;;;;5027047;28;20863;-53
2023/04/09 12:20:34;;;;;;;1999.90;999.90;;;14.00;99.90;;;;;;5026474;28;20302;-53
2023/04/09 12:23:03;;;;;;;1999.90;999.90;;;14.00;99.90;;;;;;5022489;28;20260;-55